Time;durP1;ratioP1;P1;durP2;ratioP2;P2;SDS_P1;SDS_P2;PMS_P1;PMS_P2;Temp;Humidity;BMP_temperature;BMP_pressure;BME280_temperature;BME280_humidity;BME280_pressure;Samples;Min_cycle;Max_cycle;Signal;HPM_P1;HPM_P2
2024/01/15 00:00:14;;;;;;;37.50;17.20;;;;;;;-0.96;61.87;99704.45;108100;1286;21992;-63
2024/01/15 00:02:40;;;;;;;31.80;16.00;;;;;;;-1.00;61.56;99706.91;108183;1288;21997;-62
2024/01/15 00:05:06;;;;;;;39.20;18.00;;;;;;;-1.02;61.62;99709.98;108160;1289;21983;-62
2024/01/15 00:07:32;;;;;;;31.20;15.90;;;;;;;-1.02;61.69;99711.88;107499;1288;1002418;-61
2024/01/15 00:09:58;;;;;;;36.20;18.60;;;;;;;-1.01;61.81;99718.80;107370;1287;1002814;-61
2024/01/15 00:12:23;;;;;;;66.30;28.20;;;;;;;-1.00;61.61;99729.16;107356;1282;1002675;-63
2024/01/15 00:14:49;;;;;;;63.00;25.20;;;;;;;-1.00;61.64;99730.35;108007;1277;21994;-62
2024/01/15 00:17:14;;;;;;;66.80;26.60;;;;;;;-1.01;61.79;99736.02;108106;1288;21992;-61
2024/01/15 00:19:40;;;;;;;104.20;36.30;;;;;;;-1.01;61.87;99735.31;108151;1283;22004;-63
2024/01/15 00:22:05;;;;;;;103.10;35.80;;;;;;;-1.04;61.82;99737.30;108145;1283;22046;-62
2024/01/15 00:24:31;;;;;;;147.50;45.20;;;;;;;-1.07;61.78;99740.01;108141;1279;21994;-62
2024/01/15 00:26:57;;;;;;;262.70;72.70;;;;;;;-1.08;61.78;99741.00;108165;1287;21993;-61
2024/01/15 00:29:22;;;;;;;186.30;56.40;;;;;;;-1.08;61.89;99743.77;108063;1283;21992;-61
2024/01/15 00:31:48;;;;;;;86.60;33.90;;;;;;;-1.07;61.78;99745.70;108102;1287;21986;-62
2024/01/15 00:34:13;;;;;;;58.80;26.20;;;;;;;-1.07;61.74;99742.94;107354;1277;1003209;-62
2024/01/15 00:36:39;;;;;;;38.60;17.80;;;;;;;-1.08;61.96;99737.57;108141;1280;21987;-63
2024/01/15 00:39:07;;;;;;;40.10;20.10;;;;;;;-1.09;62.00;99741.34;108172;1276;22001;-62
2024/01/15 00:41:33;;;;;;;36.80;17.40;;;;;;;-1.08;61.82;99742.38;108164;1287;21986;-61
2024/01/15 00:43:58;;;;;;;33.10;17.30;;;;;;;-1.08;61.87;99749.09;108153;1287;21992;-61
2024/01/15 00:46:24;;;;;;;38.40;18.30;;;;;;;-1.13;61.55;99753.30;108142;1280;21991;-61
2024/01/15 00:48:49;;;;;;;37.60;18.40;;;;;;;-1.16;61.46;99752.17;108126;1277;22032;-62
2024/01/15 00:51:15;;;;;;;37.00;18.90;;;;;;;-1.20;61.56;99751.24;107388;1287;1002591;-61
2024/01/15 00:53:41;;;;;;;32.90;15.90;;;;;;;-1.20;61.68;99749.13;108159;1280;21996;-63
2024/01/15 00:56:06;;;;;;;34.90;16.70;;;;;;;-1.19;61.94;99748.31;107382;1287;1002578;-63
2024/01/15 00:58:32;;;;;;;33.50;16.40;;;;;;;-1.17;62.16;99746.46;107408;1287;1002764;-61
2024/01/15 01:00:57;;;;;;;34.20;17.70;;;;;;;-1.17;62.46;99748.89;108140;1280;22027;-63
2024/01/15 01:03:23;;;;;;;34.30;17.10;;;;;;;-1.15;62.76;99749.61;108157;1287;21981;-62
2024/01/15 01:05:49;;;;;;;35.10;16.90;;;;;;;-1.12;63.17;99744.88;108176;1287;21987;-62
2024/01/15 01:08:15;;;;;;;33.90;17.30;;;;;;;-1.10;63.23;99744.56;108174;1277;22002;-63
2024/01/15 01:10:42;;;;;;;38.10;18.70;;;;;;;-1.08;63.56;99737.39;107323;1287;1003217;-61
2024/01/15 01:13:08;;;;;;;41.80;19.70;;;;;;;-1.03;63.96;99734.41;108134;1287;21987;-61
2024/01/15 01:15:34;;;;;;;40.30;19.90;;;;;;;-0.98;64.23;99739.69;108131;1280;23612;-61
2024/01/15 01:18:00;;;;;;;33.20;17.40;;;;;;;-0.94;64.69;99739.63;108134;1287;22004;-63
2024/01/15 01:20:25;;;;;;;39.50;20.20;;;;;;;-0.88;64.88;99737.52;108130;1281;21992;-63
2024/01/15 01:22:51;;;;;;;44.40;22.10;;;;;;;-0.84;64.78;99736.08;108100;1280;21987;-63
2024/01/15 01:25:16;;;;;;;40.30;20.00;;;;;;;-0.80;64.96;99732.38;108129;1287;21980;-62
2024/01/15 01:27:42;;;;;;;35.60;19.20;;;;;;;-0.77;65.14;99724.52;108137;1287;22018;-61
2024/01/15 01:30:08;;;;;;;40.80;20.20;;;;;;;-0.75;64.99;99721.65;107331;1286;1002613;-62
2024/01/15 01:32:34;;;;;;;35.70;17.70;;;;;;;-0.73;64.70;99717.54;108042;1281;21998;-61
2024/01/15 01:35:00;;;;;;;38.50;19.80;;;;;;;-0.73;64.52;99718.77;108034;1281;21999;-61
2024/01/15 01:37:25;;;;;;;36.10;18.50;;;;;;;-0.72;64.79;99718.77;108281;1286;21986;-62
2024/01/15 01:39:51;;;;;;;37.80;18.40;;;;;;;-0.71;64.79;99716.91;108272;1281;22450;-63
2024/01/15 01:42:16;;;;;;;40.40;18.40;;;;;;;-0.68;64.69;99712.32;108156;1283;21987;-63
2024/01/15 01:44:42;;;;;;;37.90;18.10;;;;;;;-0.65;64.83;99711.86;108244;1286;21987;-61
2024/01/15 01:47:07;;;;;;;38.90;18.80;;;;;;;-0.64;64.84;99711.73;108231;1281;23329;-63
2024/01/15 01:49:35;;;;;;;38.10;18.00;;;;;;;-0.62;64.60;99709.52;108130;1286;22024;-65
2024/01/15 01:52:01;;;;;;;39.30;19.50;;;;;;;-0.60;64.49;99707.66;108094;1286;21991;-63
2024/01/15 01:54:30;;;;;;;34.30;17.20;;;;;;;-0.61;64.45;99702.48;108135;1286;21980;-63
2024/01/15 01:56:56;;;;;;;37.30;18.00;;;;;;;-0.61;64.32;99707.98;108132;1286;21993;-61
2024/01/15 01:59:23;;;;;;;36.30;17.90;;;;;;;-0.62;64.19;99708.30;108082;1286;21990;-63
2024/01/15 02:01:51;;;;;;;32.70;16.90;;;;;;;-0.62;64.00;99708.66;108129;1283;21972;-62
2024/01/15 02:04:17;;;;;;;32.80;17.10;;;;;;;-0.62;64.01;99710.91;107859;1280;22001;-61
2024/01/15 02:06:42;;;;;;;32.50;17.30;;;;;;;-0.61;63.93;99714.70;108136;1286;21996;-62
2024/01/15 02:09:09;;;;;;;34.70;17.10;;;;;;;-0.62;63.74;99713.98;108268;1286;21987;-63
2024/01/15 02:11:34;;;;;;;36.30;17.30;;;;;;;-0.64;63.82;99712.91;108390;1284;21996;-63
2024/01/15 02:14:00;;;;;;;36.30;17.40;;;;;;;-0.65;63.90;99711.35;108093;1286;21984;-63
2024/01/15 02:16:25;;;;;;;42.30;19.00;;;;;;;-0.65;63.74;99710.31;108108;1280;21989;-62
2024/01/15 02:18:51;;;;;;;40.10;16.80;;;;;;;-0.65;63.87;99716.52;108213;1283;21989;-63
2024/01/15 02:21:16;;;;;;;34.20;16.90;;;;;;;-0.64;63.96;99713.95;108053;1278;21992;-61
2024/01/15 02:23:42;;;;;;;37.00;18.20;;;;;;;-0.63;63.93;99717.41;108233;1286;23730;-63
2024/01/15 02:26:08;;;;;;;36.00;18.00;;;;;;;-0.63;63.96;99720.69;108248;1284;21953;-62
2024/01/15 02:28:33;;;;;;;33.50;15.90;;;;;;;-0.63;63.81;99718.97;108232;1286;22027;-63
2024/01/15 02:30:59;;;;;;;33.10;16.60;;;;;;;-0.65;63.80;99714.27;108153;1286;21989;-65
2024/01/15 02:33:24;;;;;;;34.20;17.60;;;;;;;-0.69;63.49;99711.95;108047;1286;21991;-61
2024/01/15 02:35:50;;;;;;;33.80;16.20;;;;;;;-0.71;63.37;99712.58;108158;1285;22022;-63
2024/01/15 02:38:16;;;;;;;39.80;17.90;;;;;;;-0.74;63.15;99710.46;107338;1277;1002526;-64
2024/01/15 02:40:41;;;;;;;32.10;16.20;;;;;;;-0.77;63.11;99707.30;108192;1284;22022;-64
2024/01/15 02:43:07;;;;;;;36.30;17.10;;;;;;;-0.80;63.21;99699.98;107385;1286;1002578;-64
2024/01/15 02:45:32;;;;;;;36.30;16.60;;;;;;;-0.80;63.20;99697.55;108205;1281;22001;-64
2024/01/15 02:47:58;;;;;;;33.40;17.30;;;;;;;-0.80;63.06;99702.56;108208;1286;21983;-64
2024/01/15 02:50:23;;;;;;;34.90;16.90;;;;;;;-0.79;63.04;99706.73;108233;1286;23643;-64
2024/01/15 02:52:49;;;;;;;33.10;16.80;;;;;;;-0.77;63.24;99706.61;108256;1286;21989;-62
2024/01/15 02:55:15;;;;;;;33.00;17.10;;;;;;;-0.74;63.08;99703.08;108117;1286;21948;-62
2024/01/15 02:57:40;;;;;;;34.40;16.40;;;;;;;-0.71;63.37;99702.94;108100;1277;22040;-63
2024/01/15 03:00:07;;;;;;;33.20;16.20;;;;;;;-0.69;63.31;99696.60;108116;1286;21989;-63
2024/01/15 03:02:39;;;;;;;35.80;17.70;;;;;;;-0.65;63.31;99694.10;108280;1286;21986;-63
2024/01/15 03:05:07;;;;;;;31.90;16.60;;;;;;;-0.63;63.44;99697.94;108292;1274;21995;-62
2024/01/15 03:07:33;;;;;;;34.00;16.50;;;;;;;-0.64;63.23;99703.95;108192;1284;21988;-62
2024/01/15 03:09:59;;;;;;;31.70;16.50;;;;;;;-0.65;63.27;99704.45;108049;1282;22024;-63
2024/01/15 03:12:25;;;;;;;35.70;17.30;;;;;;;-0.67;62.95;99702.70;107477;1277;1002754;-63
2024/01/15 03:14:50;;;;;;;31.20;15.10;;;;;;;-0.68;63.05;99702.84;108132;1286;21992;-63
2024/01/15 03:17:16;;;;;;;32.50;16.20;;;;;;;-0.69;63.32;99702.30;108101;1286;21988;-63
2024/01/15 03:19:41;;;;;;;38.20;17.90;;;;;;;-0.69;63.47;99704.71;108090;1281;22102;-62
2024/01/15 03:22:08;;;;;;;36.30;18.60;;;;;;;-0.66;63.38;99699.77;108116;1286;22024;-64
2024/01/15 03:24:34;;;;;;;33.30;16.80;;;;;;;-0.64;63.46;99694.13;107480;1286;1002949;-64
2024/01/15 03:27:00;;;;;;;33.40;16.00;;;;;;;-0.63;63.32;99688.81;108112;1286;22769;-64
2024/01/15 03:29:26;;;;;;;32.90;16.00;;;;;;;-0.60;63.38;99688.20;108132;1282;21990;-63
2024/01/15 03:31:52;;;;;;;36.00;17.50;;;;;;;-0.57;63.34;99688.27;108198;1286;21982;-62
2024/01/15 03:34:17;;;;;;;35.30;15.90;;;;;;;-0.58;63.03;99680.33;108219;1286;21985;-62
2024/01/15 03:36:43;;;;;;;37.80;18.70;;;;;;;-0.61;62.93;99683.52;108270;1280;22008;-62
2024/01/15 03:39:08;;;;;;;33.80;17.20;;;;;;;-0.64;62.96;99681.20;108166;1284;22001;-62
2024/01/15 03:41:34;;;;;;;33.70;16.40;;;;;;;-0.67;62.75;99687.35;108086;1286;23612;-62
2024/01/15 03:43:59;;;;;;;31.20;14.60;;;;;;;-0.69;62.63;99693.50;107551;1286;1002390;-64
2024/01/15 03:46:25;;;;;;;32.50;16.30;;;;;;;-0.72;62.31;99695.51;107459;1283;1002528;-62
2024/01/15 03:48:50;;;;;;;31.30;15.10;;;;;;;-0.75;62.01;99693.02;107573;1286;1002497;-62
2024/01/15 03:51:19;;;;;;;29.10;14.70;;;;;;;-0.78;61.97;99692.45;108244;1278;23060;-62
2024/01/15 03:53:45;;;;;;;33.70;16.00;;;;;;;-0.80;61.66;99690.69;107538;1286;1002477;-62
2024/01/15 03:56:10;;;;;;;31.10;15.60;;;;;;;-0.81;61.80;99687.56;108266;1281;22003;-63
2024/01/15 03:58:36;;;;;;;34.10;16.10;;;;;;;-0.83;61.74;99685.62;108300;1284;21999;-64
2024/01/15 04:01:01;;;;;;;32.50;15.10;;;;;;;-0.85;61.82;99686.44;108078;1286;21993;-62
2024/01/15 04:03:27;;;;;;;31.10;15.00;;;;;;;-0.91;61.42;99686.81;108162;1278;22149;-63
2024/01/15 04:05:52;;;;;;;31.90;16.60;;;;;;;-0.96;61.23;99690.66;108251;1286;22021;-62
2024/01/15 04:08:24;;;;;;;29.70;14.70;;;;;;;-1.02;61.18;99697.06;108168;1285;22048;-63
2024/01/15 04:10:49;;;;;;;34.80;16.00;;;;;;;-1.07;61.38;99699.20;107387;1286;1002803;-62
2024/01/15 04:13:15;;;;;;;32.80;15.80;;;;;;;-1.09;61.62;99698.97;108101;1286;21989;-62
2024/01/15 04:15:40;;;;;;;33.40;15.90;;;;;;;-1.09;62.18;99696.05;108120;1286;22026;-63
2024/01/15 04:18:06;;;;;;;44.10;19.30;;;;;;;-1.07;62.49;99693.52;108156;1284;21989;-62
2024/01/15 04:20:31;;;;;;;35.80;18.20;;;;;;;-1.02;62.85;99691.56;108136;1286;21987;-62
2024/01/15 04:23:00;;;;;;;43.40;20.40;;;;;;;-0.98;63.19;99692.00;108062;1280;21979;-64
2024/01/15 04:25:25;;;;;;;33.80;17.00;;;;;;;-0.94;63.59;99694.34;107357;1281;1002509;-64
2024/01/15 04:27:51;;;;;;;38.20;18.30;;;;;;;-0.93;63.42;99692.63;107331;1286;1003211;-63
2024/01/15 04:30:16;;;;;;;38.10;19.70;;;;;;;-0.95;63.77;99688.95;108036;1286;21995;-62
2024/01/15 04:32:42;;;;;;;40.90;19.40;;;;;;;-0.95;63.91;99684.49;108073;1289;21992;-62
2024/01/15 04:35:07;;;;;;;35.60;18.10;;;;;;;-0.91;64.28;99686.98;108102;1277;21977;-62
2024/01/15 04:37:33;;;;;;;37.10;16.80;;;;;;;-0.88;64.35;99686.36;108119;1277;22010;-62
2024/01/15 04:39:59;;;;;;;40.80;19.40;;;;;;;-0.83;64.88;99684.05;107922;1280;21989;-62
2024/01/15 04:42:24;;;;;;;34.00;18.10;;;;;;;-0.79;64.70;99684.86;108079;1284;21997;-62
2024/01/15 04:44:50;;;;;;;37.20;17.20;;;;;;;-0.75;64.86;99684.76;108086;1284;22028;-63
2024/01/15 04:47:15;;;;;;;38.80;19.50;;;;;;;-0.72;64.84;99689.84;107350;1287;1002553;-62
2024/01/15 04:49:41;;;;;;;35.80;18.70;;;;;;;-0.71;64.71;99694.32;107352;1289;1002593;-62
2024/01/15 04:52:06;;;;;;;36.10;17.70;;;;;;;-0.69;64.72;99690.24;108089;1277;22000;-63
2024/01/15 04:54:32;;;;;;;38.00;18.40;;;;;;;-0.64;64.88;99688.46;108071;1287;21990;-62
2024/01/15 04:56:58;;;;;;;38.10;19.10;;;;;;;-0.57;65.05;99685.86;108022;1287;21999;-62
2024/01/15 04:59:23;;;;;;;33.20;15.80;;;;;;;-0.52;65.12;99682.15;108213;1283;21999;-62
2024/01/15 05:01:49;;;;;;;33.70;17.60;;;;;;;-0.49;64.99;99684.98;108153;1288;22029;-63
2024/01/15 05:04:15;;;;;;;37.50;18.00;;;;;;;-0.44;64.93;99685.08;108121;1283;22453;-64
2024/01/15 05:06:40;;;;;;;34.00;17.00;;;;;;;-0.39;64.98;99682.77;108149;1284;21998;-63
2024/01/15 05:09:06;;;;;;;33.40;17.50;;;;;;;-0.33;65.03;99680.14;108156;1283;22000;-62
2024/01/15 05:11:32;;;;;;;35.00;16.90;;;;;;;-0.28;65.12;99675.06;108027;1278;22029;-63
2024/01/15 05:13:58;;;;;;;39.60;18.40;;;;;;;-0.26;65.08;99671.48;108106;1288;22453;-64
2024/01/15 05:16:23;;;;;;;36.10;18.80;;;;;;;-0.29;64.72;99672.47;108085;1283;22003;-63
2024/01/15 05:18:49;;;;;;;35.60;18.20;;;;;;;-0.31;64.71;99671.58;108078;1283;21991;-64
2024/01/15 05:21:15;;;;;;;34.80;19.20;;;;;;;-0.28;65.00;99678.35;108083;1284;22104;-64
2024/01/15 05:23:40;;;;;;;34.30;18.50;;;;;;;-0.25;65.14;99673.59;108057;1277;22039;-64
2024/01/15 05:26:06;;;;;;;31.70;16.50;;;;;;;-0.22;64.84;99675.54;108065;1284;22010;-64
2024/01/15 05:28:34;;;;;;;35.90;18.20;;;;;;;-0.21;64.15;99678.47;108151;1277;21980;-63
2024/01/15 05:30:59;;;;;;;34.40;17.30;;;;;;;-0.22;64.09;99683.30;108179;1283;21980;-63
2024/01/15 05:33:25;;;;;;;33.00;16.80;;;;;;;-0.21;64.48;99682.96;108123;1286;23478;-63
2024/01/15 05:35:50;;;;;;;39.40;18.60;;;;;;;-0.19;64.71;99680.59;108202;1286;21994;-63
2024/01/15 05:38:17;;;;;;;36.50;19.00;;;;;;;-0.16;64.54;99678.76;108188;1277;21995;-64
2024/01/15 05:40:42;;;;;;;38.60;19.40;;;;;;;-0.15;64.82;99679.98;107343;1286;1002889;-64
2024/01/15 05:43:08;;;;;;;30.60;16.10;;;;;;;-0.16;64.79;99682.22;107408;1281;1002495;-65
2024/01/15 05:45:38;;;;;;;38.60;18.60;;;;;;;-0.17;64.65;99676.50;108263;1285;21993;-62
2024/01/15 05:48:03;;;;;;;34.70;18.10;;;;;;;-0.17;64.74;99676.65;108323;1284;22011;-64
2024/01/15 05:50:29;;;;;;;39.40;19.90;;;;;;;-0.17;64.93;99673.55;108159;1286;22019;-62
2024/01/15 05:52:55;;;;;;;32.90;16.90;;;;;;;-0.18;64.82;99675.77;108149;1286;21994;-63
2024/01/15 05:55:23;;;;;;;35.00;17.30;;;;;;;-0.19;64.50;99677.67;108109;1286;21987;-64
2024/01/15 05:57:48;;;;;;;36.10;17.70;;;;;;;-0.20;64.57;99678.16;108175;1286;21987;-64
2024/01/15 06:00:15;;;;;;;38.10;18.50;;;;;;;-0.21;64.40;99680.55;108085;1286;21979;-63
2024/01/15 06:02:40;;;;;;;37.60;17.90;;;;;;;-0.22;64.29;99677.61;108174;1286;21988;-63
2024/01/15 06:05:07;;;;;;;32.80;17.10;;;;;;;-0.22;64.27;99674.33;108187;1281;22018;-63
2024/01/15 06:07:36;;;;;;;36.70;18.30;;;;;;;-0.23;64.39;99672.95;108176;1284;22672;-62
2024/01/15 06:10:03;;;;;;;38.00;17.70;;;;;;;-0.21;64.74;99677.10;108098;1286;21989;-64
2024/01/15 06:12:29;;;;;;;33.50;16.80;;;;;;;-0.21;64.70;99680.04;107322;1286;1002390;-63
2024/01/15 06:14:54;;;;;;;41.00;19.30;;;;;;;-0.21;64.70;99674.70;108095;1286;21985;-62
2024/01/15 06:17:20;;;;;;;31.50;16.80;;;;;;;-0.17;64.75;99674.44;108273;1286;23720;-64
2024/01/15 06:19:48;;;;;;;33.60;16.30;;;;;;;-0.14;64.64;99676.89;108147;1286;21992;-62
2024/01/15 06:22:14;;;;;;;32.20;16.40;;;;;;;-0.11;64.58;99675.75;108113;1286;21986;-64
2024/01/15 06:24:39;;;;;;;35.10;17.10;;;;;;;-0.08;64.54;99673.73;108087;1286;21988;-62
2024/01/15 06:27:05;;;;;;;31.90;16.70;;;;;;;-0.06;64.31;99670.67;108166;1286;21992;-63
2024/01/15 06:29:31;;;;;;;30.60;15.90;;;;;;;-0.04;64.48;99671.41;108354;1286;22023;-61
2024/01/15 06:31:57;;;;;;;27.30;14.60;;;;;;;0.01;64.45;99675.63;107461;1277;1002279;-62
2024/01/15 06:34:22;;;;;;;34.60;16.80;;;;;;;0.03;64.53;99676.54;107431;1286;1002480;-62
2024/01/15 06:36:48;;;;;;;36.70;16.70;;;;;;;0.04;64.32;99678.61;108055;1284;21982;-63
2024/01/15 06:39:14;;;;;;;31.90;15.80;;;;;;;0.05;64.17;99679.50;108051;1286;21998;-64
2024/01/15 06:41:45;;;;;;;32.90;16.40;;;;;;;0.08;64.16;99679.56;108022;1286;21988;-65
2024/01/15 06:44:11;;;;;;;37.40;19.40;;;;;;;0.10;64.15;99684.27;108861;1283;22021;-63
2024/01/15 06:46:37;;;;;;;36.60;19.20;;;;;;;0.11;63.96;99687.56;108087;1283;21989;-64
2024/01/15 06:49:03;;;;;;;33.80;17.20;;;;;;;0.13;63.96;99689.83;108116;1286;21990;-64
2024/01/15 06:51:29;;;;;;;26.70;14.30;;;;;;;0.19;64.45;99692.02;108186;1281;22043;-63
2024/01/15 06:53:55;;;;;;;34.30;17.20;;;;;;;0.24;64.50;99695.39;108294;1282;21997;-63
2024/01/15 06:56:20;;;;;;;34.00;16.00;;;;;;;0.29;64.63;99700.30;108200;1286;22007;-65
2024/01/15 06:58:46;;;;;;;29.90;14.40;;;;;;;0.35;64.80;99702.84;107407;1277;1002442;-65
2024/01/15 07:01:12;;;;;;;54.40;28.40;;;;;;;0.41;64.80;99698.80;108112;1286;21993;-62
2024/01/15 07:03:37;;;;;;;60.40;35.30;;;;;;;0.48;65.02;99691.33;108011;1281;22003;-65
2024/01/15 07:06:04;;;;;;;37.00;18.30;;;;;;;0.55;65.04;99687.48;107413;1286;1002381;-63
2024/01/15 07:08:30;;;;;;;30.40;16.20;;;;;;;0.64;65.33;99685.21;108023;1286;21988;-63
2024/01/15 07:10:55;;;;;;;31.50;15.50;;;;;;;0.74;65.57;99685.38;108005;1286;22797;-64
2024/01/15 07:13:21;;;;;;;29.70;14.80;;;;;;;0.84;65.60;99685.90;107352;1286;1002636;-64
2024/01/15 07:15:46;;;;;;;27.00;14.20;;;;;;;0.94;65.52;99681.89;107349;1284;1002287;-64
2024/01/15 07:18:12;;;;;;;24.40;12.90;;;;;;;1.05;65.81;99682.41;107299;1286;1002303;-63
2024/01/15 07:20:38;;;;;;;30.10;14.40;;;;;;;1.13;66.03;99686.16;107321;1286;1002974;-65
2024/01/15 07:23:04;;;;;;;24.50;13.00;;;;;;;1.19;65.99;99687.46;107363;1284;1002521;-66
2024/01/15 07:25:29;;;;;;;26.00;12.60;;;;;;;1.27;65.72;99682.73;108066;1286;21996;-63
2024/01/15 07:27:55;;;;;;;25.40;12.60;;;;;;;1.35;65.85;99676.79;108114;1278;21995;-63
2024/01/15 07:30:21;;;;;;;27.50;14.40;;;;;;;1.44;65.98;99676.22;108012;1277;21999;-64
2024/01/15 07:32:47;;;;;;;25.20;14.00;;;;;;;1.50;65.99;99672.33;108123;1287;22032;-63
2024/01/15 07:35:15;;;;;;;28.80;14.80;;;;;;;1.56;66.17;99671.02;108079;1276;23666;-63
2024/01/15 07:37:41;;;;;;;28.80;13.70;;;;;;;1.64;66.08;99670.43;108109;1287;21995;-65
2024/01/15 07:40:08;;;;;;;28.20;14.60;;;;;;;1.73;66.12;99664.30;108118;1288;21986;-63
2024/01/15 07:42:35;;;;;;;30.20;15.50;;;;;;;1.84;66.19;99658.73;108145;1284;22005;-63
2024/01/15 07:45:01;;;;;;;27.70;15.10;;;;;;;1.95;66.32;99662.14;108030;1285;178733;-65
2024/01/15 07:47:27;;;;;;;26.00;14.10;;;;;;;2.05;66.52;99660.00;108101;1283;22000;-63
2024/01/15 07:49:53;;;;;;;29.00;15.00;;;;;;;2.16;66.64;99660.12;108088;1288;21998;-64
2024/01/15 07:52:19;;;;;;;30.20;15.40;;;;;;;2.24;66.43;99657.42;108105;1288;22000;-63
2024/01/15 07:54:45;;;;;;;30.50;16.00;;;;;;;2.34;66.49;99653.73;108084;1287;21982;-65
2024/01/15 07:57:11;;;;;;;29.30;15.00;;;;;;;2.43;66.21;99651.90;108061;1289;22665;-63
2024/01/15 07:59:36;;;;;;;30.10;16.20;;;;;;;2.47;65.69;99647.95;108080;1283;22000;-63
2024/01/15 08:02:02;;;;;;;28.90;16.50;;;;;;;2.47;64.92;99639.45;107353;1287;1002346;-63
2024/01/15 08:04:27;;;;;;;27.70;16.10;;;;;;;2.50;64.78;99630.48;108072;1284;21989;-67
2024/01/15 08:06:53;;;;;;;33.50;16.60;;;;;;;2.51;64.71;99634.47;107344;1289;1002585;-66
2024/01/15 08:09:21;;;;;;;31.00;16.00;;;;;;;2.57;64.94;99641.80;107563;1278;1002748;-66
2024/01/15 08:11:49;;;;;;;27.90;15.50;;;;;;;2.65;64.67;99646.20;107314;1288;1002774;-61
2024/01/15 08:14:14;;;;;;;31.30;16.40;;;;;;;2.68;64.24;99649.33;108066;1288;21982;-63
2024/01/15 08:16:40;;;;;;;29.90;15.20;;;;;;;2.67;63.92;99646.20;108070;1288;22170;-63
2024/01/15 08:19:06;;;;;;;34.70;18.70;;;;;;;2.63;63.41;99643.76;107200;1288;1002381;-62
2024/01/15 08:21:31;;;;;;;30.90;16.50;;;;;;;2.61;63.45;99642.70;107146;1288;1002420;-62
2024/01/15 08:24:02;;;;;;;26.70;14.90;;;;;;;2.55;63.07;99650.96;108032;1287;21983;-62
2024/01/15 08:26:28;;;;;;;31.90;16.80;;;;;;;2.46;62.57;99646.90;108083;1287;22052;-66
2024/01/15 08:28:54;;;;;;;28.20;14.50;;;;;;;2.42;62.64;99638.55;108072;1288;21992;-66
2024/01/15 08:31:19;;;;;;;28.30;15.40;;;;;;;2.41;62.69;99634.04;108098;1284;22012;-66
2024/01/15 08:33:45;;;;;;;30.80;15.20;;;;;;;2.39;62.55;99630.39;108104;1288;23876;-66
2024/01/15 08:36:11;;;;;;;27.50;14.90;;;;;;;2.42;62.76;99631.29;108074;1277;22015;-66
2024/01/15 08:38:37;;;;;;;22.00;12.70;;;;;;;2.49;63.17;99625.80;108090;1288;21992;-62
2024/01/15 08:41:02;;;;;;;26.40;14.20;;;;;;;2.50;62.84;99613.50;108132;1288;21995;-66
2024/01/15 08:43:28;;;;;;;24.10;12.30;;;;;;;2.64;62.97;99607.03;108138;1287;21995;-66
2024/01/15 08:45:54;;;;;;;26.70;14.10;;;;;;;2.70;62.74;99612.80;108092;1288;21983;-62
2024/01/15 08:48:19;;;;;;;24.20;13.30;;;;;;;2.81;62.97;99612.36;108106;1288;21989;-65
2024/01/15 08:50:48;;;;;;;28.20;14.90;;;;;;;2.87;62.73;99603.73;108095;1288;22035;-62
2024/01/15 08:53:17;;;;;;;33.00;16.30;;;;;;;2.95;62.70;99599.63;107377;1287;1001957;-62
2024/01/15 08:55:43;;;;;;;32.40;16.30;;;;;;;2.99;62.59;99593.93;108173;1280;22005;-62
2024/01/15 08:58:09;;;;;;;35.20;17.70;;;;;;;3.04;62.85;99592.05;108110;1288;21989;-67
2024/01/15 09:00:35;;;;;;;35.00;18.00;;;;;;;3.02;62.43;99585.98;108210;1288;21996;-67
2024/01/15 09:03:02;;;;;;;35.60;17.90;;;;;;;2.96;61.95;99581.60;108165;1288;21988;-65
2024/01/15 09:05:30;;;;;;;33.70;16.70;;;;;;;3.12;62.59;99575.80;108175;1288;21992;-65
2024/01/15 09:07:55;;;;;;;33.00;17.30;;;;;;;3.29;63.19;99572.07;108115;1288;22025;-66
2024/01/15 09:10:21;;;;;;;32.70;16.70;;;;;;;3.43;63.26;99569.35;108179;1287;21992;-67
2024/01/15 09:12:47;;;;;;;32.00;16.30;;;;;;;3.54;63.44;99570.60;108110;1288;21995;-63
2024/01/15 09:15:12;;;;;;;27.00;16.10;;;;;;;3.58;63.01;99568.00;108116;1288;21994;-63
2024/01/15 09:17:38;;;;;;;29.00;16.00;;;;;;;3.61;63.06;99564.55;108108;1288;21988;-66
2024/01/15 09:20:05;;;;;;;28.00;14.60;;;;;;;3.68;63.61;99560.40;108096;1289;21993;-63
2024/01/15 09:22:31;;;;;;;25.60;13.90;;;;;;;3.75;63.56;99560.60;108187;1287;22017;-63
2024/01/15 09:24:57;;;;;;;28.10;14.60;;;;;;;3.80;63.16;99553.48;108123;1287;22096;-65
2024/01/15 09:27:22;;;;;;;27.20;14.60;;;;;;;3.88;62.63;99557.49;108115;1277;23780;-63
2024/01/15 09:29:49;;;;;;;23.10;12.90;;;;;;;3.96;62.67;99553.34;108149;1289;22108;-66
2024/01/15 09:32:15;;;;;;;24.60;14.20;;;;;;;4.04;62.44;99541.55;108071;1286;21994;-63
2024/01/15 09:34:41;;;;;;;27.00;14.50;;;;;;;4.14;62.24;99536.00;108081;1286;22116;-66
2024/01/15 09:37:07;;;;;;;26.40;15.40;;;;;;;4.19;61.98;99532.52;107350;1286;1003041;-66
2024/01/15 09:39:32;;;;;;;29.30;15.60;;;;;;;4.25;61.85;99533.22;107351;1286;1002259;-66
2024/01/15 09:41:58;;;;;;;30.70;14.70;;;;;;;4.37;61.97;99538.44;108104;1286;21999;-64
2024/01/15 09:44:26;;;;;;;26.60;15.00;;;;;;;4.54;62.79;99538.07;108130;1286;22002;-67
2024/01/15 09:46:51;;;;;;;28.60;15.60;;;;;;;4.68;63.03;99532.84;108070;1286;22001;-64
2024/01/15 09:49:17;;;;;;;27.40;15.00;;;;;;;4.79;63.02;99536.48;107871;1286;21998;-64
2024/01/15 09:51:43;;;;;;;28.60;15.30;;;;;;;4.84;62.34;99526.37;108072;1286;21989;-68
2024/01/15 09:54:16;;;;;;;28.50;15.70;;;;;;;4.85;61.91;99523.05;108211;1286;22024;-68
2024/01/15 09:56:46;;;;;;;27.20;15.00;;;;;;;4.85;61.57;99524.28;108225;1286;22104;-64
2024/01/15 09:59:15;;;;;;;29.90;17.00;;;;;;;4.91;62.09;99522.02;108161;1286;22078;-64
2024/01/15 10:01:41;;;;;;;23.20;13.10;;;;;;;5.00;62.83;99518.16;108118;1284;22029;-68
2024/01/15 10:04:06;;;;;;;22.50;12.50;;;;;;;5.06;62.74;99521.27;107886;1285;22020;-68
2024/01/15 10:06:32;;;;;;;22.50;12.80;;;;;;;5.13;62.52;99520.53;108059;1286;21987;-67
2024/01/15 10:09:00;;;;;;;23.10;13.00;;;;;;;5.20;62.54;99525.39;108095;1286;22026;-65
2024/01/15 10:11:26;;;;;;;21.60;12.70;;;;;;;5.32;62.46;99527.25;108074;1286;21986;-67
2024/01/15 10:13:52;;;;;;;22.50;12.40;;;;;;;5.52;63.41;99527.33;107914;1286;23689;-65
2024/01/15 10:16:22;;;;;;;24.60;13.50;;;;;;;5.68;63.32;99525.67;108134;1286;21990;-65
2024/01/15 10:18:50;;;;;;;22.50;12.70;;;;;;;5.82;62.92;99521.75;108141;1286;21994;-67
2024/01/15 10:21:16;;;;;;;21.90;11.40;;;;;;;5.94;62.52;99516.27;107353;1286;1002284;-67
2024/01/15 10:23:42;;;;;;;21.80;11.50;;;;;;;6.00;61.95;99508.40;108162;1286;22452;-67
2024/01/15 10:26:07;;;;;;;19.80;11.60;;;;;;;6.08;61.48;99505.58;108053;1286;21989;-65
2024/01/15 10:28:33;;;;;;;20.90;12.50;;;;;;;6.10;60.64;99501.02;108069;1286;21986;-68
2024/01/15 10:31:00;;;;;;;23.10;12.80;;;;;;;6.11;59.57;99499.11;107989;1278;22024;-66
2024/01/15 10:33:25;;;;;;;24.60;14.20;;;;;;;6.16;59.39;99496.27;108174;1273;23850;-66
2024/01/15 10:35:55;;;;;;;24.50;14.30;;;;;;;6.25;60.19;99491.49;108125;1286;23096;-65
2024/01/15 10:38:22;;;;;;;22.90;12.60;;;;;;;6.31;59.80;99492.50;108292;1286;21995;-67
2024/01/15 10:40:51;;;;;;;23.00;13.30;;;;;;;6.32;59.27;99486.02;108262;1283;21998;-65
2024/01/15 10:43:20;;;;;;;22.00;13.30;;;;;;;6.47;59.46;99481.71;108343;1286;21995;-66
2024/01/15 10:45:46;;;;;;;23.30;13.00;;;;;;;6.62;59.61;99474.24;107344;1286;1003015;-67
2024/01/15 10:48:12;;;;;;;25.50;13.90;;;;;;;6.72;59.25;99466.81;108086;1286;21989;-68
2024/01/15 10:50:38;;;;;;;18.20;10.90;;;;;;;6.87;59.37;99459.48;108070;1286;21994;-67
2024/01/15 10:53:04;;;;;;;20.10;12.00;;;;;;;7.00;59.35;99453.58;108081;1286;21989;-68
2024/01/15 10:55:30;;;;;;;20.90;12.80;;;;;;;7.08;58.86;99447.02;108148;1286;22917;-66
2024/01/15 10:57:57;;;;;;;20.10;11.60;;;;;;;7.20;59.15;99437.10;108125;1286;21990;-68
2024/01/15 11:00:25;;;;;;;18.90;11.60;;;;;;;7.39;60.37;99441.19;108131;1286;21997;-68
2024/01/15 11:02:50;;;;;;;20.40;11.80;;;;;;;7.49;59.38;99441.57;108048;1284;21992;-67